Time;durP1;ratioP1;P1;durP2;ratioP2;P2;SDS_P1;SDS_P2;PMS_P1;PMS_P2;Temp;Humidity;BMP_temperature;BMP_pressure;BME280_temperature;BME280_humidity;BME280_pressure;Samples;Min_cycle;Max_cycle;Signal;HPM_P1;HPM_P2
2022/06/18 00:01:59;;;;;;;16.20;9.93;;;16.80;82.00;;;;;;4937961;29;20071;-74
2022/06/18 00:04:28;;;;;;;14.68;8.95;;;16.80;82.20;;;;;;4953485;29;20406;-75
2022/06/18 00:07:02;;;;;;;12.50;7.03;;;16.80;82.40;;;;;;4952679;29;20055;-77
2022/06/18 00:09:36;;;;;;;11.02;6.97;;;16.70;82.70;;;;;;4953864;29;20066;-74
2022/06/18 00:15:12;;;;;;;11.00;5.65;;;16.30;83.20;;;;;;4942552;29;20069;-75
2022/06/18 00:17:41;;;;;;;9.63;4.70;;;16.30;83.20;;;;;;4947727;29;20059;-74
2022/06/18 00:20:12;;;;;;;8.38;4.00;;;16.20;83.40;;;;;;4938110;29;20059;-74
2022/06/18 00:22:43;;;;;;;7.20;4.50;;;16.20;83.30;;;;;;4944079;29;20044;-75
2022/06/18 00:25:25;;;;;;;9.55;4.05;;;16.10;83.20;;;;;;4947089;29;20124;-74
2022/06/18 00:27:53;;;;;;;8.60;3.60;;;16.10;83.10;;;;;;4952879;29;20520;-74
2022/06/18 00:30:22;;;;;;;9.23;3.55;;;16.10;82.90;;;;;;4952391;29;20047;-74
2022/06/18 00:32:54;;;;;;;7.22;3.53;;;16.00;82.80;;;;;;4953866;29;20051;-74
2022/06/18 00:35:25;;;;;;;8.40;3.85;;;16.00;82.70;;;;;;4953031;29;20049;-73
2022/06/18 00:37:56;;;;;;;11.30;4.22;;;16.00;82.60;;;;;;4952821;28;20482;-75
2022/06/18 00:40:51;;;;;;;5.68;3.03;;;16.10;82.50;;;;;;4951120;29;20055;-75
2022/06/18 00:43:27;;;;;;;4.80;3.10;;;16.10;82.40;;;;;;4951188;29;20059;-75
2022/06/18 00:46:02;;;;;;;5.50;3.13;;;16.10;82.30;;;;;;4949669;29;20062;-75
2022/06/18 00:48:34;;;;;;;5.53;2.63;;;16.10;82.10;;;;;;4949948;29;20047;-75
2022/06/18 00:51:25;;;;;;;4.03;2.77;;;16.10;82.00;;;;;;4943487;29;20409;-76
2022/06/18 00:54:00;;;;;;;5.03;2.53;;;16.00;81.90;;;;;;4950808;29;20043;-75
2022/06/18 00:56:56;;;;;;;4.00;2.15;;;16.00;81.80;;;;;;4938488;29;20493;-75
2022/06/18 00:59:37;;;;;;;5.97;2.35;;;16.00;81.60;;;;;;4943479;29;20051;-75
2022/06/18 01:02:06;;;;;;;3.60;2.25;;;16.00;81.50;;;;;;4950030;29;20451;-75
2022/06/18 01:04:35;;;;;;;4.13;2.10;;;16.00;81.40;;;;;;4941650;29;20425;-75
2022/06/18 01:07:16;;;;;;;4.20;2.15;;;16.00;81.30;;;;;;4952334;29;20404;-75
2022/06/18 01:09:47;;;;;;;4.57;2.17;;;16.00;81.30;;;;;;4953354;28;20394;-74
2022/06/18 01:12:15;;;;;;;4.82;1.90;;;16.00;81.20;;;;;;4937116;29;20059;-74
2022/06/18 01:14:46;;;;;;;4.55;2.10;;;16.00;81.20;;;;;;4949776;29;20058;-75
2022/06/18 01:17:14;;;;;;;3.90;1.90;;;16.00;81.00;;;;;;4939370;29;20047;-75
2022/06/18 01:19:46;;;;;;;5.13;2.08;;;16.00;81.00;;;;;;4945975;29;20500;-77
2022/06/18 01:22:48;;;;;;;7.78;2.25;;;16.00;80.90;;;;;;4950502;29;20063;-75
2022/06/18 01:25:16;;;;;;;1.92;1.38;;;16.00;80.80;;;;;;4947453;29;20644;-75
2022/06/18 01:27:49;;;;;;;2.35;1.40;;;16.00;80.60;;;;;;4949317;29;20077;-76
2022/06/18 01:30:33;;;;;;;2.63;1.38;;;15.90;80.40;;;;;;4925687;29;20043;-75
2022/06/18 01:33:01;;;;;;;3.58;1.10;;;15.90;80.20;;;;;;4948774;29;20365;-75
2022/06/18 01:35:31;;;;;;;1.98;1.10;;;15.80;80.10;;;;;;4937273;29;20544;-76
2022/06/18 01:38:04;;;;;;;3.13;1.15;;;15.80;80.10;;;;;;4937869;29;20052;-75
2022/06/18 01:41:49;;;;;;;2.60;1.27;;;15.80;79.90;;;;;;4936042;29;20055;-76
2022/06/18 01:43:48;;;;;;;3.80;1.23;;;15.80;79.90;;;;;;4948471;29;20482;-75
2022/06/18 01:46:16;;;;;;;2.67;1.30;;;15.70;79.80;;;;;;4923625;29;20410;-75
2022/06/18 01:48:49;;;;;;;6.68;1.42;;;15.70;79.70;;;;;;4938309;29;20043;-76
2022/06/18 01:51:24;;;;;;;4.18;1.38;;;15.70;79.80;;;;;;4948599;29;20409;-75
2022/06/18 01:54:01;;;;;;;2.58;1.30;;;15.70;79.80;;;;;;4950074;29;20516;-75
2022/06/18 01:56:34;;;;;;;5.47;1.40;;;15.70;79.70;;;;;;4949788;29;20070;-76
2022/06/18 01:59:15;;;;;;;3.58;1.30;;;15.70;79.80;;;;;;4934871;29;20379;-75
2022/06/18 02:01:46;;;;;;;5.18;1.40;;;15.60;79.80;;;;;;4928743;29;20058;-76
2022/06/18 02:04:16;;;;;;;3.13;1.55;;;15.60;79.80;;;;;;4955360;29;20409;-76
2022/06/18 02:06:49;;;;;;;4.88;1.52;;;15.60;79.80;;;;;;4943424;29;20058;-75
2022/06/18 02:09:31;;;;;;;5.85;1.55;;;15.50;79.80;;;;;;4949876;29;20046;-76
2022/06/18 02:12:03;;;;;;;4.63;1.50;;;15.50;79.60;;;;;;4939820;29;20517;-76
2022/06/18 02:14:37;;;;;;;6.50;1.70;;;15.50;79.40;;;;;;4938189;29;20054;-75
2022/06/18 02:17:08;;;;;;;4.93;1.48;;;15.40;79.30;;;;;;4954095;29;20043;-76
2022/06/18 02:19:38;;;;;;;13.60;1.75;;;15.40;79.20;;;;;;4956830;28;20059;-77
2022/06/18 02:22:08;;;;;;;4.88;1.55;;;15.40;79.20;;;;;;4939170;29;20047;-76
2022/06/18 02:24:36;;;;;;;6.47;1.70;;;15.40;79.20;;;;;;4948565;29;20490;-75
2022/06/18 02:27:04;;;;;;;6.88;1.70;;;15.40;79.20;;;;;;4951291;29;20481;-76
2022/06/18 02:29:34;;;;;;;5.88;1.88;;;15.40;79.30;;;;;;4945688;29;20055;-75
2022/06/18 02:32:06;;;;;;;5.60;1.58;;;15.40;79.30;;;;;;4951038;29;20051;-76
2022/06/18 02:34:33;;;;;;;4.57;1.98;;;15.40;79.40;;;;;;4948101;29;20386;-75
2022/06/18 02:37:13;;;;;;;9.15;1.95;;;15.30;79.20;;;;;;4943164;29;20051;-76
2022/06/18 02:39:55;;;;;;;10.02;1.70;;;15.30;79.20;;;;;;4944520;28;20059;-76
2022/06/18 02:42:24;;;;;;;8.15;1.40;;;15.20;79.00;;;;;;4953186;29;20051;-75
2022/06/18 02:44:52;;;;;;;8.57;1.48;;;15.20;78.90;;;;;;4941793;29;20043;-75
2022/06/18 02:47:21;;;;;;;9.60;1.70;;;15.10;78.80;;;;;;4946137;29;20054;-76
2022/06/18 02:50:10;;;;;;;8.35;1.90;;;15.10;78.80;;;;;;4949065;29;20051;-75
2022/06/18 02:52:49;;;;;;;9.57;1.80;;;15.00;78.70;;;;;;4941099;29;20067;-77
2022/06/18 02:55:25;;;;;;;13.38;2.05;;;15.00;78.50;;;;;;4946231;29;20056;-76
2022/06/18 02:57:56;;;;;;;9.70;1.65;;;14.90;78.40;;;;;;4950885;29;20062;-76
2022/06/18 03:00:24;;;;;;;10.77;1.63;;;14.80;78.30;;;;;;4952788;28;20043;-76
2022/06/18 03:02:52;;;;;;;13.98;1.75;;;14.80;78.30;;;;;;4941417;29;20059;-75
2022/06/18 03:05:24;;;;;;;10.85;1.50;;;14.80;78.30;;;;;;4945777;29;20519;-76
2022/06/18 03:07:52;;;;;;;5.20;1.35;;;14.80;78.20;;;;;;4943738;29;20359;-75
2022/06/18 03:13:06;;;;;;;11.57;1.67;;;14.70;78.20;;;;;;4948656;29;20056;-76
2022/06/18 03:15:38;;;;;;;15.55;2.15;;;14.80;78.20;;;;;;4948403;29;20412;-76
2022/06/18 03:18:06;;;;;;;7.38;1.50;;;14.70;78.10;;;;;;4940066;29;20044;-76
2022/06/18 03:20:55;;;;;;;9.73;1.40;;;14.70;77.90;;;;;;4951925;29;20043;-75
2022/06/18 03:23:24;;;;;;;9.43;1.73;;;14.70;77.80;;;;;;4945632;29;20040;-76
2022/06/18 03:25:52;;;;;;;14.45;2.05;;;14.70;77.40;;;;;;4954613;29;20058;-76
2022/06/18 03:28:23;;;;;;;9.57;1.60;;;14.70;77.10;;;;;;4939112;29;20051;-75
2022/06/18 03:30:51;;;;;;;12.68;2.17;;;14.60;77.00;;;;;;4949244;29;20043;-75
2022/06/18 03:33:19;;;;;;;8.48;1.60;;;14.60;76.80;;;;;;4944487;29;20055;-75
2022/06/18 03:35:49;;;;;;;12.82;1.60;;;14.60;76.50;;;;;;4954650;29;20051;-75
2022/06/18 03:38:23;;;;;;;12.65;1.85;;;14.60;76.20;;;;;;4942695;28;20047;-75
2022/06/18 03:40:52;;;;;;;12.27;1.83;;;14.60;75.80;;;;;;4934322;29;20063;-76
2022/06/18 03:43:25;;;;;;;8.32;1.65;;;14.60;75.40;;;;;;4928233;29;20043;-75
2022/06/18 03:46:08;;;;;;;13.27;1.75;;;14.50;75.00;;;;;;4964071;28;20219;-76
2022/06/18 03:48:45;;;;;;;15.68;2.33;;;14.50;74.20;;;;;;4935951;29;20039;-75
2022/06/18 03:51:15;;;;;;;9.93;1.88;;;14.50;73.80;;;;;;4929581;29;20055;-75
2022/06/18 03:53:44;;;;;;;10.55;2.03;;;14.40;73.10;;;;;;4945244;29;20048;-75
2022/06/18 03:56:16;;;;;;;17.08;2.08;;;14.40;73.00;;;;;;4949954;28;20059;-76
2022/06/18 03:58:44;;;;;;;13.50;1.90;;;14.30;73.00;;;;;;4947512;28;20052;-75
2022/06/18 04:01:17;;;;;;;16.00;2.33;;;14.30;72.90;;;;;;4939062;29;20070;-75
2022/06/18 04:03:46;;;;;;;16.42;1.80;;;14.30;72.70;;;;;;4919144;29;20062;-75
2022/06/18 04:06:23;;;;;;;18.15;2.08;;;14.30;72.50;;;;;;4951170;29;20145;-75
2022/06/18 04:08:52;;;;;;;19.60;2.05;;;14.30;72.60;;;;;;4952345;28;20051;-75
2022/06/18 04:11:20;;;;;;;14.43;2.50;;;14.30;72.50;;;;;;4952358;28;20050;-76
2022/06/18 04:13:49;;;;;;;11.80;2.15;;;14.30;72.50;;;;;;4951611;28;20051;-76
2022/06/18 04:16:35;;;;;;;10.88;2.30;;;14.30;72.40;;;;;;4946644;28;20374;-75
2022/06/18 04:19:10;;;;;;;24.83;2.55;;;14.20;72.50;;;;;;4945883;29;20040;-75
2022/06/18 04:21:37;;;;;;;11.65;1.90;;;14.20;72.50;;;;;;4949454;28;20058;-75
2022/06/18 04:24:06;;;;;;;16.80;2.25;;;14.20;72.50;;;;;;4941478;28;20502;-75
2022/06/18 04:26:36;;;;;;;11.88;2.17;;;14.20;72.60;;;;;;4947774;29;20040;-75
2022/06/18 04:29:04;;;;;;;10.68;2.03;;;14.20;72.60;;;;;;4946489;28;20043;-75
2022/06/18 04:31:31;;;;;;;17.63;2.70;;;14.10;72.70;;;;;;4952677;29;20070;-76
2022/06/18 04:34:00;;;;;;;11.95;2.50;;;14.10;72.80;;;;;;4951696;28;20047;-75
2022/06/18 04:36:51;;;;;;;16.27;2.53;;;14.10;72.90;;;;;;4939873;28;20805;-76
2022/06/18 04:39:41;;;;;;;24.83;2.47;;;14.10;73.00;;;;;;4951192;28;20055;-75
2022/06/18 04:42:31;;;;;;;24.35;2.50;;;14.00;73.10;;;;;;4911863;29;20059;-75
2022/06/18 04:45:00;;;;;;;23.33;2.63;;;14.00;73.10;;;;;;4897522;29;20051;-75
2022/06/18 04:47:36;;;;;;;18.55;2.35;;;14.10;73.20;;;;;;4894095;29;20056;-75
2022/06/18 04:50:04;;;;;;;17.10;2.25;;;14.10;73.30;;;;;;4895126;29;20052;-75
2022/06/18 04:52:32;;;;;;;18.50;2.30;;;14.00;73.30;;;;;;4912640;29;20044;-75
2022/06/18 04:55:02;;;;;;;21.38;2.85;;;14.00;73.40;;;;;;4895925;29;20056;-75
2022/06/18 04:57:30;;;;;;;11.88;2.13;;;14.00;73.50;;;;;;4894096;29;20044;-75
2022/06/18 04:59:59;;;;;;;19.83;2.47;;;14.00;73.50;;;;;;4876556;29;20056;-76
2022/06/18 05:02:30;;;;;;;16.77;2.58;;;14.00;73.60;;;;;;4897043;29;20052;-75
2022/06/18 05:05:30;;;;;;;22.23;2.60;;;14.00;73.60;;;;;;4898924;29;20056;-75
2022/06/18 05:08:27;;;;;;;15.05;2.33;;;14.00;73.70;;;;;;4894794;29;20071;-75
2022/06/18 05:11:27;;;;;;;22.42;2.75;;;14.00;73.90;;;;;;4865702;29;20065;-75
2022/06/18 05:14:10;;;;;;;22.20;2.50;;;13.90;74.00;;;;;;4856536;29;20068;-75
2022/06/18 05:16:43;;;;;;;30.95;3.38;;;13.90;74.10;;;;;;4857059;29;20048;-75
2022/06/18 05:19:40;;;;;;;23.90;2.58;;;13.90;74.40;;;;;;4878315;29;20064;-75
2022/06/18 05:22:09;;;;;;;23.52;2.90;;;13.80;74.50;;;;;;4885382;29;20497;-75
2022/06/18 05:24:38;;;;;;;20.80;2.55;;;13.80;74.50;;;;;;4874597;29;20056;-75
2022/06/18 05:27:20;;;;;;;13.50;2.50;;;13.80;74.70;;;;;;4877309;29;20096;-75
2022/06/18 05:29:50;;;;;;;22.17;2.72;;;13.80;74.70;;;;;;4872188;29;20051;-75
2022/06/18 05:32:18;;;;;;;27.55;2.70;;;13.80;74.70;;;;;;4872011;29;20067;-75
2022/06/18 05:34:47;;;;;;;24.58;3.03;;;13.80;74.70;;;;;;4873904;29;20065;-75
2022/06/18 05:37:22;;;;;;;21.90;3.05;;;13.90;74.70;;;;;;4879363;29;20565;-75
2022/06/18 05:39:51;;;;;;;23.17;3.15;;;13.90;74.60;;;;;;4866582;29;20053;-75
2022/06/18 05:42:21;;;;;;;18.95;3.10;;;14.00;74.50;;;;;;4876733;29;20056;-75
2022/06/18 05:44:49;;;;;;;14.18;2.38;;;14.00;74.40;;;;;;4893953;29;20485;-75
2022/06/18 05:47:26;;;;;;;18.65;3.17;;;13.90;74.20;;;;;;4924738;29;20062;-76
2022/06/18 05:49:56;;;;;;;16.02;2.63;;;13.90;74.10;;;;;;4938249;28;20058;-75
2022/06/18 05:52:27;;;;;;;20.40;2.72;;;13.90;74.00;;;;;;4929050;29;20062;-75
2022/06/18 05:54:55;;;;;;;15.20;2.40;;;13.90;73.80;;;;;;4951256;28;20051;-75
2022/06/18 05:57:49;;;;;;;18.67;2.80;;;13.90;73.60;;;;;;4961068;28;20051;-75
2022/06/18 06:00:32;;;;;;;23.00;3.03;;;13.90;73.20;;;;;;4949437;28;20050;-75
2022/06/18 06:03:03;;;;;;;25.17;3.22;;;13.90;72.70;;;;;;4937469;28;20520;-75
2022/06/18 06:05:32;;;;;;;16.75;2.70;;;13.90;72.10;;;;;;4939537;28;20047;-75
2022/06/18 06:08:00;;;;;;;16.40;2.95;;;13.90;71.10;;;;;;4942831;28;20047;-75
2022/06/18 06:13:17;;;;;;;14.70;1.92;;;13.90;70.50;;;;;;4936670;29;20070;-75
2022/06/18 06:15:45;;;;;;;17.85;2.40;;;13.90;69.60;;;;;;4945614;28;20532;-75
2022/06/18 06:18:15;;;;;;;23.70;2.35;;;13.90;69.60;;;;;;4947159;28;20051;-75
2022/06/18 06:20:46;;;;;;;21.40;2.63;;;14.00;69.50;;;;;;4941370;28;20516;-74
2022/06/18 06:23:14;;;;;;;22.20;2.67;;;14.00;68.70;;;;;;4949466;29;20058;-75
2022/06/18 06:25:44;;;;;;;17.38;2.40;;;14.00;68.20;;;;;;4951770;28;20043;-75
2022/06/18 06:28:14;;;;;;;17.25;2.85;;;14.00;67.90;;;;;;4953712;29;20385;-75
2022/06/18 06:30:42;;;;;;;15.55;2.55;;;14.00;68.00;;;;;;4951871;29;20051;-75
2022/06/18 06:33:10;;;;;;;16.77;2.35;;;14.00;68.10;;;;;;4950962;28;20062;-75
2022/06/18 06:35:38;;;;;;;16.17;2.78;;;14.00;68.10;;;;;;4942194;28;20070;-75
2022/06/18 06:38:07;;;;;;;19.73;2.42;;;14.10;68.10;;;;;;4955840;29;20051;-75
2022/06/18 06:40:35;;;;;;;17.73;3.10;;;14.00;68.00;;;;;;4953961;28;20051;-75
2022/06/18 06:43:04;;;;;;;17.33;2.25;;;14.20;68.00;;;;;;4956791;29;20070;-75
2022/06/18 06:45:33;;;;;;;20.20;2.20;;;14.20;67.80;;;;;;4953688;28;20058;-75
2022/06/18 06:48:02;;;;;;;12.00;2.20;;;14.20;67.50;;;;;;4949915;28;20062;-75
2022/06/18 06:50:31;;;;;;;15.20;2.03;;;14.20;67.20;;;;;;4949820;28;20054;-75
2022/06/18 06:52:59;;;;;;;18.95;2.47;;;14.20;67.00;;;;;;4946688;28;20058;-76
2022/06/18 06:58:37;;;;;;;19.27;1.80;;;14.20;66.80;;;;;;4899510;29;20069;-75
2022/06/18 07:01:05;;;;;;;14.07;2.00;;;14.30;66.80;;;;;;4912966;29;20056;-75
2022/06/18 07:03:34;;;;;;;17.88;2.70;;;14.30;66.60;;;;;;4903804;29;20056;-74
2022/06/18 07:06:03;;;;;;;11.70;2.00;;;14.30;66.50;;;;;;4906301;29;20432;-73
2022/06/18 07:08:31;;;;;;;15.13;3.03;;;14.40;66.30;;;;;;4895372;29;20060;-74
2022/06/18 07:10:59;;;;;;;16.17;2.53;;;14.40;66.00;;;;;;4899258;29;20041;-74
2022/06/18 07:13:29;;;;;;;19.35;2.88;;;14.40;66.00;;;;;;4896824;29;20236;-75
2022/06/18 07:15:58;;;;;;;15.18;2.45;;;14.50;66.10;;;;;;4880201;29;20099;-74
2022/06/18 07:18:32;;;;;;;24.15;2.63;;;14.50;66.10;;;;;;4912968;29;20049;-74
2022/06/18 07:21:02;;;;;;;15.93;2.22;;;14.60;65.90;;;;;;4908330;29;20052;-74
2022/06/18 07:23:30;;;;;;;22.08;2.95;;;14.70;65.80;;;;;;4883110;29;20056;-74
2022/06/18 07:25:57;;;;;;;19.00;2.45;;;14.70;65.50;;;;;;4910777;29;20513;-74
2022/06/18 07:28:25;;;;;;;13.77;2.22;;;14.80;65.20;;;;;;4911778;29;20077;-74
2022/06/18 07:30:53;;;;;;;15.35;1.83;;;14.80;64.90;;;;;;4951819;28;20043;-75
2022/06/18 07:33:23;;;;;;;18.95;2.85;;;14.90;64.80;;;;;;4946683;28;20051;-74
2022/06/18 07:35:51;;;;;;;14.52;1.95;;;14.90;64.70;;;;;;4945395;28;20490;-74
2022/06/18 07:38:20;;;;;;;18.27;2.35;;;14.90;64.80;;;;;;4954598;29;20051;-74
2022/06/18 07:40:51;;;;;;;23.33;2.08;;;14.90;64.60;;;;;;4953070;28;20040;-74
2022/06/18 07:43:32;;;;;;;11.00;2.08;;;15.00;64.70;;;;;;4954884;28;20047;-74
2022/06/18 07:46:02;;;;;;;15.68;2.35;;;15.00;64.30;;;;;;4954711;28;20058;-74
2022/06/18 07:48:31;;;;;;;19.95;2.28;;;14.90;64.50;;;;;;4948065;29;20043;-74
2022/06/18 07:50:59;;;;;;;18.50;2.38;;;14.90;64.50;;;;;;4949604;28;20417;-74
2022/06/18 07:53:27;;;;;;;14.25;2.15;;;14.90;64.50;;;;;;4953192;28;20051;-74
2022/06/18 07:55:56;;;;;;;19.25;2.28;;;14.90;64.50;;;;;;4952172;28;20074;-73
2022/06/18 07:58:26;;;;;;;18.70;2.60;;;15.00;64.30;;;;;;4951996;29;20051;-72
2022/06/18 08:00:56;;;;;;;20.80;2.33;;;15.20;64.10;;;;;;4948179;28;20635;-72
2022/06/18 08:03:24;;;;;;;17.20;2.13;;;15.30;63.80;;;;;;4951969;28;20058;-73
2022/06/18 08:05:53;;;;;;;17.35;2.33;;;15.30;63.80;;;;;;4942160;28;20055;-74
2022/06/18 08:08:21;;;;;;;17.17;2.60;;;15.30;63.60;;;;;;4952611;28;20382;-73
2022/06/18 08:11:13;;;;;;;10.77;2.00;;;15.40;63.40;;;;;;4950462;29;20047;-73
2022/06/18 08:13:42;;;;;;;18.30;1.73;;;15.40;63.40;;;;;;4954515;28;20429;-73
2022/06/18 08:16:13;;;;;;;13.50;1.90;;;15.40;63.30;;;;;;4953011;29;20605;-73
2022/06/18 08:18:42;;;;;;;16.55;2.08;;;15.30;63.20;;;;;;4954342;28;20047;-73
2022/06/18 08:21:15;;;;;;;15.50;2.67;;;15.40;63.30;;;;;;4953198;28;20043;-72
2022/06/18 08:23:43;;;;;;;13.50;2.20;;;15.50;63.30;;;;;;4950058;28;20059;-73
2022/06/18 08:26:11;;;;;;;16.20;2.63;;;15.60;63.00;;;;;;4954892;29;20043;-73
2022/06/18 08:28:39;;;;;;;16.75;2.35;;;15.50;62.60;;;;;;4953727;29;20055;-73
2022/06/18 08:31:10;;;;;;;14.93;2.47;;;15.40;62.10;;;;;;4953364;28;20047;-73
2022/06/18 08:33:38;;;;;;;15.38;2.40;;;15.30;62.50;;;;;;4952089;28;20489;-73
2022/06/18 08:36:10;;;;;;;17.85;2.33;;;15.30;62.60;;;;;;4951738;28;20058;-74
2022/06/18 08:38:39;;;;;;;12.47;1.93;;;15.30;63.00;;;;;;4953223;29;20047;-74
2022/06/18 08:41:31;;;;;;;16.65;2.13;;;15.30;63.50;;;;;;4952677;28;20047;-74
2022/06/18 08:44:27;;;;;;;16.50;1.92;;;15.30;64.10;;;;;;4953264;28;20512;-74
2022/06/18 08:47:14;;;;;;;15.32;1.80;;;15.30;63.90;;;;;;4953536;28;20043;-74
2022/06/18 08:49:50;;;;;;;12.57;2.20;;;15.30;64.30;;;;;;4953086;28;20047;-74
2022/06/18 08:52:20;;;;;;;13.52;1.95;;;15.30;64.10;;;;;;4938208;28;20413;-73
2022/06/18 08:55:13;;;;;;;19.08;2.40;;;15.30;64.10;;;;;;4952851;28;20516;-74
2022/06/18 08:57:59;;;;;;;11.32;2.30;;;15.20;64.30;;;;;;4951953;28;20501;-73
2022/06/18 09:00:36;;;;;;;14.45;2.15;;;15.00;64.90;;;;;;4952111;28;20058;-74
2022/06/18 09:03:11;;;;;;;16.95;2.22;;;14.80;65.10;;;;;;4953375;28;20055;-73
2022/06/18 09:06:32;;;;;;;14.13;2.00;;;14.80;65.10;;;;;;4952899;29;20047;-73
2022/06/18 09:09:42;;;;;;;17.45;2.28;;;14.70;65.40;;;;;;4903264;29;20063;-74
2022/06/18 09:12:09;;;;;;;17.50;2.25;;;14.70;65.40;;;;;;4819070;29;20189;-72
2022/06/18 09:15:03;;;;;;;18.50;2.28;;;14.80;65.40;;;;;;4831520;29;20049;-73
2022/06/18 09:17:40;;;;;;;16.20;2.50;;;14.80;65.00;;;;;;4835149;29;20058;-73
2022/06/18 09:20:23;;;;;;;11.20;2.50;;;14.80;64.90;;;;;;4834558;29;20062;-74
2022/06/18 09:22:53;;;;;;;;;;;15.00;64.80;;;;;;4829731;29;20098;-73
2022/06/18 09:25:25;;;;;;;13.52;2.50;;;15.20;64.30;;;;;;4833992;29;20383;-73
2022/06/18 09:28:10;;;;;;;13.65;2.25;;;15.30;64.00;;;;;;4836982;29;20049;-73
2022/06/18 09:30:43;;;;;;;14.70;2.00;;;15.30;63.70;;;;;;4832497;29;20058;-73
2022/06/18 09:33:16;;;;;;;;;;;15.40;63.40;;;;;;4836058;29;20065;-73
2022/06/18 09:36:14;;;;;;;14.55;1.90;;;15.40;63.10;;;;;;4832771;29;19932;-73
2022/06/18 09:39:02;;;;;;;24.45;3.00;;;15.30;62.90;;;;;;4816177;29;20508;-73
2022/06/18 09:41:39;;;;;;;15.65;2.13;;;15.20;63.10;;;;;;4835525;29;20512;-72
2022/06/18 09:44:25;;;;;;;17.30;1.88;;;15.10;63.30;;;;;;4889709;29;20053;-73
2022/06/18 09:47:00;;;;;;;13.02;2.13;;;15.00;63.30;;;;;;4936497;29;20084;-72
2022/06/18 09:49:29;;;;;;;17.70;2.35;;;14.90;63.30;;;;;;4946082;28;20108;-72
2022/06/18 09:52:39;;;;;;;13.80;1.98;;;14.90;63.40;;;;;;4950951;28;20058;-72
2022/06/18 09:55:35;;;;;;;12.35;2.30;;;15.00;63.30;;;;;;4942674;28;20062;-73
2022/06/18 09:58:10;;;;;;;11.75;2.08;;;15.00;63.20;;;;;;4949553;28;20044;-72
2022/06/18 10:00:40;;;;;;;15.75;2.00;;;15.10;62.90;;;;;;4949022;28;20043;-73
2022/06/18 10:06:52;;;;;;;16.98;2.15;;;15.00;62.60;;;;;;4951553;29;20059;-72
2022/06/18 10:09:15;;;;;;;13.27;1.80;;;15.10;62.70;;;;;;4948787;28;20047;-72
2022/06/18 10:11:43;;;;;;;10.65;1.85;;;15.00;62.50;;;;;;4942898;28;20044;-72
2022/06/18 10:14:19;;;;;;;15.15;1.50;;;15.00;62.30;;;;;;4944238;29;20035;-73
2022/06/18 10:16:53;;;;;;;17.73;2.45;;;15.00;62.30;;;;;;4955390;28;20047;-72
2022/06/18 10:19:58;;;;;;;15.30;1.95;;;14.90;62.40;;;;;;4955939;28;20056;-72
2022/06/18 10:22:34;;;;;;;14.40;2.40;;;15.00;62.50;;;;;;4940728;29;20040;-72
2022/06/18 10:25:29;;;;;;;15.73;2.17;;;15.00;62.50;;;;;;4951839;28;20051;-73
2022/06/18 10:27:59;;;;;;;15.60;2.25;;;15.20;62.30;;;;;;4954006;29;20501;-73
2022/06/18 10:30:39;;;;;;;19.83;2.38;;;15.20;61.90;;;;;;4955892;28;20050;-72
2022/06/18 10:33:22;;;;;;;12.63;2.00;;;15.30;61.50;;;;;;4954019;28;20051;-72
2022/06/18 10:36:36;;;;;;;12.97;1.73;;;15.20;61.20;;;;;;4953844;29;20512;-72
2022/06/18 10:39:10;;;;;;;14.88;2.25;;;15.30;61.50;;;;;;4904624;28;20058;-71
2022/06/18 10:41:53;;;;;;;13.48;1.98;;;15.30;61.50;;;;;;4955333;28;20121;-74
2022/06/18 10:44:24;;;;;;;13.55;1.75;;;15.40;61.10;;;;;;4955068;28;20050;-71
2022/06/18 10:47:01;;;;;;;11.60;2.10;;;15.50;61.00;;;;;;4954269;29;20062;-71
2022/06/18 10:49:31;;;;;;;16.05;2.13;;;15.70;60.70;;;;;;4956876;28;20488;-72
2022/06/18 10:52:01;;;;;;;15.05;1.77;;;15.90;60.20;;;;;;4954581;29;20065;-71
2022/06/18 10:54:35;;;;;;;16.35;2.25;;;16.00;59.40;;;;;;4938559;29;20047;-72
2022/06/18 10:57:04;;;;;;;14.48;1.98;;;16.10;58.90;;;;;;4954323;28;20416;-72
2022/06/18 10:59:37;;;;;;;9.68;1.80;;;16.00;58.00;;;;;;4954615;28;20550;-72
2022/06/18 11:02:09;;;;;;;9.07;1.70;;;16.00;58.20;;;;;;4954470;28;20055;-72
2022/06/18 11:04:37;;;;;;;10.07;1.92;;;16.10;58.20;;;;;;4953675;28;20493;-73
2022/06/18 11:07:08;;;;;;;16.77;2.22;;;16.10;58.20;;;;;;4955305;29;20051;-72
2022/06/18 11:09:59;;;;;;;7.93;1.90;;;16.20;57.80;;;;;;4955211;28;20054;-73
2022/06/18 11:12:31;;;;;;;12.43;1.85;;;16.30;56.90;;;;;;4944025;29;20050;-72
2022/06/18 11:14:59;;;;;;;12.18;2.15;;;16.60;55.50;;;;;;4954496;28;20054;-73
2022/06/18 11:17:41;;;;;;;11.23;1.45;;;16.90;54.90;;;;;;4954298;29;20055;-73
2022/06/18 11:20:15;;;;;;;13.88;1.90;;;17.10;54.50;;;;;;4941325;28;20066;-73
2022/06/18 11:22:44;;;;;;;9.48;1.65;;;17.30;53.90;;;;;;4935871;29;20036;-73
2022/06/18 11:25:39;;;;;;;11.95;2.45;;;17.30;53.10;;;;;;4943859;28;20051;-73
2022/06/18 11:28:15;;;;;;;14.20;2.05;;;17.30;53.00;;;;;;4953971;28;20054;-73
2022/06/18 11:30:46;;;;;;;12.05;2.40;;;17.20;53.10;;;;;;4955150;29;20043;-73
2022/06/18 11:33:42;;;;;;;9.85;2.03;;;17.10;53.00;;;;;;4953968;28;20062;-73
2022/06/18 11:36:18;;;;;;;13.80;1.90;;;16.90;53.20;;;;;;4953821;28;20544;-73
2022/06/18 11:38:56;;;;;;;10.32;1.92;;;16.90;53.50;;;;;;4938476;29;20060;-72
2022/06/18 11:41:40;;;;;;;12.48;1.90;;;16.80;53.80;;;;;;4952167;29;20481;-73
2022/06/18 11:44:30;;;;;;;14.40;1.88;;;16.90;54.10;;;;;;4953497;29;20132;-72
2022/06/18 11:47:16;;;;;;;13.70;2.22;;;17.00;54.30;;;;;;4951456;29;20063;-73
2022/06/18 11:49:47;;;;;;;11.70;1.95;;;17.10;54.20;;;;;;4949997;28;20044;-73
2022/06/18 11:52:26;;;;;;;10.45;1.58;;;17.20;53.90;;;;;;4949176;29;20125;-72
2022/06/18 11:55:49;;;;;;;14.85;1.95;;;17.30;53.50;;;;;;4952876;28;20052;-73
2022/06/18 11:58:24;;;;;;;11.93;1.63;;;17.10;53.70;;;;;;4896237;29;20056;-72
2022/06/18 12:01:07;;;;;;;5.75;1.83;;;17.00;53.20;;;;;;4900198;29;20059;-73
2022/06/18 12:03:39;;;;;;;10.52;1.50;;;16.80;53.20;;;;;;4910513;29;20539;-72
2022/06/18 12:06:13;;;;;;;8.35;1.67;;;16.80;53.30;;;;;;4913210;29;20056;-73
2022/06/18 12:09:00;;;;;;;13.98;1.70;;;16.70;53.40;;;;;;4909991;29;20626;-73
2022/06/18 12:11:43;;;;;;;13.93;2.10;;;16.50;53.80;;;;;;4916146;29;20060;-72
2022/06/18 12:14:29;;;;;;;10.32;1.80;;;16.40;54.00;;;;;;4914885;29;20466;-73
2022/06/18 12:17:24;;;;;;;7.95;1.80;;;16.30;54.10;;;;;;4915427;29;20052;-73
2022/06/18 12:19:55;;;;;;;9.50;1.90;;;16.30;53.80;;;;;;4914617;29;20063;-73
2022/06/18 12:22:42;;;;;;;7.90;1.40;;;16.10;53.50;;;;;;4915001;29;20078;-73
2022/06/18 12:25:15;;;;;;;11.25;1.75;;;15.90;53.60;;;;;;4914131;29;20060;-73
2022/06/18 12:27:58;;;;;;;14.55;2.20;;;15.80;54.00;;;;;;4914662;29;20059;-73
2022/06/18 12:30:39;;;;;;;11.45;1.90;;;15.80;54.30;;;;;;4895769;29;20162;-72
2022/06/18 12:33:30;;;;;;;14.40;2.45;;;15.70;53.80;;;;;;4926279;29;20048;-74
2022/06/18 12:36:25;;;;;;;11.70;1.85;;;15.60;53.50;;;;;;4934378;29;20059;-73
2022/06/18 12:39:14;;;;;;;11.82;1.65;;;15.60;53.50;;;;;;4936860;29;20052;-72
2022/06/18 12:41:54;;;;;;;12.40;1.92;;;15.60;53.70;;;;;;4953112;28;20055;-73
2022/06/18 12:44:43;;;;;;;13.23;2.08;;;15.70;54.10;;;;;;4953294;29;20044;-72
2022/06/18 12:47:55;;;;;;;14.18;2.08;;;15.80;54.30;;;;;;4953991;28;20050;-72
2022/06/18 12:50:26;;;;;;;13.73;2.08;;;15.80;54.60;;;;;;4875335;29;20049;-73
2022/06/18 12:53:18;;;;;;;16.80;2.30;;;15.80;55.10;;;;;;4867547;29;20057;-72
2022/06/18 12:55:48;;;;;;;13.07;2.00;;;15.70;55.80;;;;;;4872271;29;20057;-73
2022/06/18 12:58:30;;;;;;;18.17;2.38;;;15.50;56.40;;;;;;4875862;29;20530;-73
2022/06/18 13:01:14;;;;;;;12.53;2.17;;;15.40;57.10;;;;;;4876454;29;20041;-73
2022/06/18 13:03:50;;;;;;;14.82;2.30;;;15.30;57.60;;;;;;4875589;29;20325;-73
2022/06/18 13:06:53;;;;;;;15.77;2.35;;;15.20;57.90;;;;;;4874652;29;20066;-73
2022/06/18 13:09:38;;;;;;;17.77;2.23;;;15.10;58.40;;;;;;4839084;29;20062;-73
2022/06/18 13:12:28;;;;;;;13.25;1.88;;;15.00;58.70;;;;;;4839021;29;20058;-73
2022/06/18 13:14:56;;;;;;;14.23;1.80;;;14.90;58.90;;;;;;4809378;29;20054;-73
2022/06/18 13:17:40;;;;;;;15.27;1.88;;;14.80;59.10;;;;;;4832308;29;20065;-73
2022/06/18 13:20:36;;;;;;;12.20;2.17;;;14.80;59.30;;;;;;4839862;29;20606;-73
2022/06/18 13:28:10;;;;;;;14.85;2.10;;;14.80;59.40;;;;;;4901472;29;20411;-73
2022/06/18 13:29:03;;;;;;;13.05;2.30;;;15.10;59.10;;;;;;4902214;29;20051;-73
2022/06/18 13:32:09;;;;;;;17.73;2.30;;;15.30;58.50;;;;;;4910553;29;20055;-74
2022/06/18 13:34:54;;;;;;;16.38;2.30;;;15.50;57.80;;;;;;4902598;29;20056;-73
2022/06/18 13:37:59;;;;;;;12.70;2.38;;;15.70;57.70;;;;;;4911881;29;20806;-72
2022/06/18 13:41:04;;;;;;;14.20;2.53;;;15.80;57.10;;;;;;4871925;29;20059;-72
2022/06/18 13:43:45;;;;;;;16.42;2.38;;;15.80;56.80;;;;;;4860403;29;20410;-72
2022/06/18 13:46:50;;;;;;;19.75;2.63;;;15.90;56.50;;;;;;4943632;29;20055;-72